Time,TemperatureF,DewpointF,PressureIn,WindDirection,WindDirectionDegrees,WindSpeedMPH,WindSpeedGustMPH,Humidity,HourlyPrecipIn,Conditions,Clouds,dailyrainin,SoftwareType,DateUTC
2013-07-26 00:14:00,67.6,65.0,29.92,NNE,30,0.0,-999.0,92,-99.99,,,0.00,weatherlink.com 1.10,2013-07-26 04:14:00,
2013-07-26 00:29:00,67.3,65.0,29.92,NNE,30,0.0,-999.0,92,-99.99,,,0.00,weatherlink.com 1.10,2013-07-26 04:29:00,
2013-07-26 00:44:00,66.9,65.0,29.92,NNE,30,0.0,-999.0,92,-99.99,,,0.00,weatherlink.com 1.10,2013-07-26 04:44:00,
2013-07-26 00:58:00,66.4,64.0,29.92,NNE,30,0.0,-999.0,93,-99.99,,,0.00,weatherlink.com 1.10,2013-07-26 04:58:00,
2013-07-26 01:14:00,66.0,64.0,29.92,NNE,30,0.0,-999.0,93,-99.99,,,0.00,weatherlink.com 1.10,2013-07-26 05:14:00,
2013-07-26 01:30:00,65.6,64.0,29.92,NNE,30,0.0,-999.0,93,-99.99,,,0.00,weatherlink.com 1.10,2013-07-26 05:30:00,
2013-07-26 01:43:00,65.5,64.0,29.92,NNE,30,0.0,-999.0,94,-99.99,,,0.00,weatherlink.com 1.10,2013-07-26 05:43:00,
2013-07-26 01:58:00,65.3,64.0,29.91,NNE,30,0.0,-999.0,94,-99.99,,,0.00,weatherlink.com 1.10,2013-07-26 05:58:00,
2013-07-26 02:14:00,65.3,64.0,29.90,North,-999,-999.0,-999.0,94,-99.99,,,0.00,weatherlink.com 1.10,2013-07-26 06:14:00,
2013-07-26 02:29:00,64.8,63.0,29.90,NNE,30,0.0,-999.0,94,-99.99,,,0.00,weatherlink.com 1.10,2013-07-26 06:29:00,
2013-07-26 02:44:00,64.7,63.0,29.91,NNE,30,0.0,-999.0,95,-99.99,,,0.00,weatherlink.com 1.10,2013-07-26 06:44:00,
2013-07-26 02:59:00,64.7,63.0,29.91,North,-999,-999.0,-999.0,95,-99.99,,,0.00,weatherlink.com 1.10,2013-07-26 06:59:00,
2013-07-26 03:14:00,64.3,63.0,29.90,NNE,30,0.0,-999.0,95,-99.99,,,0.00,weatherlink.com 1.10,2013-07-26 07:14:00,
2013-07-26 03:29:00,64.2,63.0,29.91,NNE,30,0.0,-999.0,95,-99.99,,,0.00,weatherlink.com 1.10,2013-07-26 07:29:00,
2013-07-26 03:44:00,63.9,63.0,29.91,NNE,30,0.0,-999.0,95,-99.99,,,0.00,weatherlink.com 1.10,2013-07-26 07:44:00,
2013-07-26 03:59:00,63.7,62.0,29.91,NNE,30,0.0,-999.0,95,-99.99,,,0.00,weatherlink.com 1.10,2013-07-26 07:59:00,
2013-07-26 04:14:00,63.5,62.0,29.92,NNE,30,0.0,-999.0,96,-99.99,,,0.00,weatherlink.com 1.10,2013-07-26 08:14:00,
2013-07-26 04:29:00,63.4,62.0,29.92,NNE,30,0.0,-999.0,96,-99.99,,,0.00,weatherlink.com 1.10,2013-07-26 08:29:00,
2013-07-26 04:44:00,63.4,62.0,29.92,NNE,30,0.0,-999.0,96,-99.99,,,0.00,weatherlink.com 1.10,2013-07-26 08:44:00,
2013-07-26 04:59:00,63.2,62.0,29.92,NNE,30,0.0,-999.0,96,-99.99,,,0.00,weatherlink.com 1.10,2013-07-26 08:59:00,
2013-07-26 05:14:00,62.9,62.0,29.93,NNE,30,0.0,-999.0,96,-99.99,,,0.00,weatherlink.com 1.10,2013-07-26 09:14:00,
2013-07-26 05:29:00,62.7,62.0,29.94,NNE,30,0.0,-999.0,96,-99.99,,,0.00,weatherlink.com 1.10,2013-07-26 09:29:00,
2013-07-26 05:44:00,62.7,62.0,29.95,NNE,30,0.0,-999.0,96,-99.99,,,0.00,weatherlink.com 1.10,2013-07-26 09:44:00,
2013-07-26 05:59:00,62.9,62.0,29.95,NNE,30,0.0,-999.0,96,-99.99,,,0.00,weatherlink.com 1.10,2013-07-26 09:59:00,
2013-07-26 06:14:00,62.6,62.0,29.96,NNE,30,0.0,-999.0,96,-99.99,,,0.00,weatherlink.com 1.10,2013-07-26 10:14:00,
2013-07-26 06:29:00,62.4,61.0,29.96,NNE,30,0.0,-999.0,96,-99.99,,,0.00,weatherlink.com 1.10,2013-07-26 10:29:00,
2013-07-26 06:44:00,62.4,61.0,29.96,NNE,30,0.0,-999.0,96,-99.99,,,0.00,weatherlink.com 1.10,2013-07-26 10:44:00,
2013-07-26 06:59:00,62.6,62.0,29.96,NNE,30,0.0,-999.0,97,-99.99,,,0.00,weatherlink.com 1.10,2013-07-26 10:59:00,
2013-07-26 07:14:00,63.1,62.0,29.96,East,88,0.0,-999.0,97,-99.99,,,0.00,weatherlink.com 1.10,2013-07-26 11:14:00,
2013-07-26 07:29:00,63.9,63.0,29.95,East,88,0.0,-999.0,97,-99.99,,,0.00,weatherlink.com 1.10,2013-07-26 11:29:00,
2013-07-26 07:44:00,64.2,63.0,29.96,East,88,0.0,-999.0,97,-99.99,,,0.00,weatherlink.com 1.10,2013-07-26 11:44:00,
2013-07-26 07:59:00,65.0,64.0,29.96,East,88,0.0,-999.0,97,-99.99,,,0.00,weatherlink.com 1.10,2013-07-26 11:59:00,
2013-07-26 08:14:00,66.9,66.0,29.97,East,88,0.0,-999.0,95,-99.99,,,0.00,weatherlink.com 1.10,2013-07-26 12:14:00,
2013-07-26 08:29:00,68.8,66.0,29.98,East,88,0.0,-999.0,91,-99.99,,,0.00,weatherlink.com 1.10,2013-07-26 12:29:00,
2013-07-26 08:44:00,69.9,66.0,29.98,East,88,0.0,-999.0,86,-99.99,,,0.00,weatherlink.com 1.10,2013-07-26 12:44:00,
2013-07-26 08:59:00,70.9,67.0,29.98,East,88,0.0,-999.0,86,-99.99,,,0.00,weatherlink.com 1.10,2013-07-26 12:59:00,
2013-07-26 09:14:00,72.5,68.0,29.99,ENE,75,0.0,-999.0,86,-99.99,,,0.00,weatherlink.com 1.10,2013-07-26 13:14:00,
2013-07-26 09:29:00,72.5,68.0,29.98,NE,52,0.0,-999.0,86,-99.99,,,0.00,weatherlink.com 1.10,2013-07-26 13:29:00,
2013-07-26 09:44:00,75.3,63.0,29.98,NE,48,0.0,-999.0,65,-99.99,,,0.00,weatherlink.com 1.10,2013-07-26 13:44:00,
2013-07-26 09:59:00,76.3,62.0,29.99,ENE,75,0.0,-999.0,61,-99.99,,,0.00,weatherlink.com 1.10,2013-07-26 13:59:00,
2013-07-26 10:14:00,77.2,63.0,29.99,ENE,75,0.0,-999.0,61,-99.99,,,0.00,weatherlink.com 1.10,2013-07-26 14:14:00,
2013-07-26 10:29:00,77.6,62.0,29.99,ENE,76,0.0,-999.0,58,-99.99,,,0.00,weatherlink.com 1.10,2013-07-26 14:29:00,
2013-07-26 10:44:00,78.3,62.0,29.99,East,79,0.0,-999.0,57,-99.99,,,0.00,weatherlink.com 1.10,2013-07-26 14:44:00,
2013-07-26 10:59:00,79.4,63.0,29.99,East,79,0.0,-999.0,57,-99.99,,,0.00,weatherlink.com 1.10,2013-07-26 14:59:00,
2013-07-26 11:14:00,80.1,63.0,29.98,East,83,0.0,-999.0,57,-99.99,,,0.00,weatherlink.com 1.10,2013-07-26 15:14:00,
2013-07-26 11:29:00,80.1,62.0,29.98,ENE,71,0.0,-999.0,54,-99.99,,,0.00,weatherlink.com 1.10,2013-07-26 15:29:00,
2013-07-26 11:44:00,80.1,60.0,29.98,ENE,66,0.0,-999.0,51,-99.99,,,0.00,weatherlink.com 1.10,2013-07-26 15:44:00,
2013-07-26 11:59:00,80.1,60.0,29.98,NE,45,0.0,-999.0,51,-99.99,,,0.00,weatherlink.com 1.10,2013-07-26 15:59:00,
2013-07-26 12:29:00,81.6,60.0,29.98,NNE,17,0.0,-999.0,48,-99.99,,,0.00,weatherlink.com 1.10,2013-07-26 16:29:00,
2013-07-26 12:44:00,82.0,60.0,29.98,East,79,1.0,-999.0,48,-99.99,,,0.00,weatherlink.com 1.10,2013-07-26 16:44:00,
2013-07-26 12:59:00,81.4,61.0,29.98,ENE,71,0.0,-999.0,50,-99.99,,,0.00,weatherlink.com 1.10,2013-07-26 16:59:00,
2013-07-26 13:14:00,81.6,63.0,29.98,ENE,73,0.0,-999.0,53,-99.99,,,0.00,weatherlink.com 1.10,2013-07-26 17:14:00,
2013-07-26 13:29:00,82.4,63.0,29.98,NNE,32,0.0,-999.0,52,-99.99,,,0.00,weatherlink.com 1.10,2013-07-26 17:29:00,
2013-07-26 13:44:00,83.2,64.0,29.98,ESE,104,0.0,-999.0,52,-99.99,,,0.00,weatherlink.com 1.10,2013-07-26 17:44:00,
2013-07-26 13:59:00,84.3,63.0,29.97,ESE,106,0.0,-999.0,49,-99.99,,,0.00,weatherlink.com 1.10,2013-07-26 17:59:00,
2013-07-26 14:15:00,83.8,64.0,29.97,SSE,158,0.0,-999.0,51,-99.99,,,0.00,weatherlink.com 1.10,2013-07-26 18:15:00,
2013-07-26 14:30:00,84.1,63.0,29.96,SSE,158,0.0,-999.0,50,-99.99,,,0.00,weatherlink.com 1.10,2013-07-26 18:30:00,
2013-07-26 14:45:00,85.3,63.0,29.96,SSE,161,0.0,-999.0,47,-99.99,,,0.00,weatherlink.com 1.10,2013-07-26 18:45:00,
2013-07-26 15:00:00,85.3,65.0,29.96,East,86,0.0,-999.0,50,-99.99,,,0.00,weatherlink.com 1.10,2013-07-26 19:00:00,
2013-07-26 15:15:00,84.9,66.0,29.95,East,86,0.0,-999.0,53,-99.99,,,0.00,weatherlink.com 1.10,2013-07-26 19:15:00,
2013-07-26 15:30:00,85.9,65.0,29.95,East,88,0.0,-999.0,50,-99.99,,,0.00,weatherlink.com 1.10,2013-07-26 19:30:00,
2013-07-26 15:45:00,84.7,65.0,29.95,East,86,0.0,-999.0,51,-99.99,,,0.00,weatherlink.com 1.10,2013-07-26 19:45:00,
2013-07-26 16:00:00,84.7,65.0,29.95,East,86,0.0,-999.0,51,-99.99,,,0.00,weatherlink.com 1.10,2013-07-26 20:00:00,
2013-07-26 16:15:00,87.2,66.0,29.94,East,86,0.0,-999.0,49,-99.99,,,0.00,weatherlink.com 1.10,2013-07-26 20:15:00,
2013-07-26 16:30:00,87.2,66.0,29.94,East,86,0.0,-999.0,50,-99.99,,,0.00,weatherlink.com 1.10,2013-07-26 20:30:00,
2013-07-26 16:45:00,87.0,68.0,29.93,East,86,0.0,-999.0,53,-99.99,,,0.00,weatherlink.com 1.10,2013-07-26 20:45:00,
2013-07-26 17:00:00,88.2,64.0,29.93,East,89,0.0,-999.0,44,-99.99,,,0.00,weatherlink.com 1.10,2013-07-26 21:00:00,
2013-07-26 17:15:00,86.3,63.0,29.93,ENE,71,1.0,-999.0,45,-99.99,,,0.00,weatherlink.com 1.10,2013-07-26 21:15:00,
2013-07-26 17:30:00,85.3,62.0,29.93,ENE,71,0.0,-999.0,45,-99.99,,,0.00,weatherlink.com 1.10,2013-07-26 21:30:00,
2013-07-26 17:45:00,86.7,63.0,29.92,ENE,73,0.0,-999.0,45,-99.99,,,0.00,weatherlink.com 1.10,2013-07-26 21:45:00,
2013-07-26 18:00:00,87.0,66.0,29.91,ENE,73,0.0,-999.0,49,-99.99,,,0.00,weatherlink.com 1.10,2013-07-26 22:00:00,
2013-07-26 18:15:00,84.1,63.0,29.91,ENE,71,2.0,-999.0,50,-99.99,,,0.00,weatherlink.com 1.10,2013-07-26 22:15:00,
2013-07-26 18:30:00,82.8,64.0,29.91,ENE,72,0.0,-999.0,53,-99.99,,,0.00,weatherlink.com 1.10,2013-07-26 22:30:00,
2013-07-26 18:45:00,82.6,64.0,29.92,ENE,72,0.0,-999.0,53,-99.99,,,0.00,weatherlink.com 1.10,2013-07-26 22:45:00,
2013-07-26 19:00:00,82.4,64.0,29.92,ENE,69,0.0,-999.0,54,-99.99,,,0.00,weatherlink.com 1.10,2013-07-26 23:00:00,
2013-07-26 19:15:00,81.8,65.0,29.92,East,80,0.0,-999.0,56,-99.99,,,0.00,weatherlink.com 1.10,2013-07-26 23:15:00,
2013-07-26 19:30:00,81.1,65.0,29.92,East,82,0.0,-999.0,59,-99.99,,,0.00,weatherlink.com 1.10,2013-07-26 23:30:00,
2013-07-26 19:45:00,80.5,67.0,29.92,East,82,0.0,-999.0,63,-99.99,,,0.00,weatherlink.com 1.10,2013-07-26 23:45:00,
2013-07-26 20:00:00,79.9,67.0,29.93,East,82,0.0,-999.0,65,-99.99,,,0.00,weatherlink.com 1.10,2013-07-27 00:00:00,
2013-07-26 20:15:00,79.9,67.0,29.92,North,-999,-999.0,-999.0,65,-99.99,,,0.00,weatherlink.com 1.10,2013-07-27 00:15:00,
2013-07-26 20:30:00,79.9,67.0,29.92,East,82,0.0,-999.0,65,-99.99,,,0.00,weatherlink.com 1.10,2013-07-27 00:30:00,
2013-07-26 20:45:00,76.0,63.0,29.92,East,82,0.0,-999.0,65,-99.99,,,0.00,weatherlink.com 1.10,2013-07-27 00:45:00,
2013-07-26 21:00:00,76.0,63.0,29.93,East,82,0.0,-999.0,65,-99.99,,,0.00,weatherlink.com 1.10,2013-07-27 01:00:00,
2013-07-26 21:15:00,74.2,62.0,29.93,East,82,0.0,-999.0,65,-99.99,,,0.00,weatherlink.com 1.10,2013-07-27 01:15:00,
2013-07-26 21:29:00,74.2,62.0,29.93,East,82,0.0,-999.0,65,-99.99,,,0.00,weatherlink.com 1.10,2013-07-27 01:29:00,
2013-07-26 21:45:00,72.8,60.0,29.93,East,82,0.0,-999.0,65,-99.99,,,0.00,weatherlink.com 1.10,2013-07-27 01:45:00,
2013-07-26 22:00:00,72.8,60.0,29.94,East,82,0.0,-999.0,65,-99.99,,,0.00,weatherlink.com 1.10,2013-07-27 02:00:00,
2013-07-26 22:15:00,71.6,67.0,29.94,East,82,0.0,-999.0,84,-99.99,,,0.00,weatherlink.com 1.10,2013-07-27 02:15:00,
2013-07-26 22:30:00,71.1,66.0,29.94,East,82,0.0,-999.0,85,-99.99,,,0.00,weatherlink.com 1.10,2013-07-27 02:30:00,
2013-07-26 22:45:00,70.8,67.0,29.94,East,82,0.0,-999.0,86,-99.99,,,0.00,weatherlink.com 1.10,2013-07-27 02:45:00,
2013-07-26 23:00:00,70.4,66.0,29.94,East,82,0.0,-999.0,87,-99.99,,,0.00,weatherlink.com 1.10,2013-07-27 03:00:00,
2013-07-26 23:15:00,70.1,66.0,29.94,East,82,0.0,-999.0,87,-99.99,,,0.00,weatherlink.com 1.10,2013-07-27 03:15:00,
2013-07-26 23:30:00,69.8,66.0,29.94,East,82,0.0,-999.0,88,-99.99,,,0.00,weatherlink.com 1.10,2013-07-27 03:30:00,
2013-07-26 23:45:00,69.6,66.0,29.94,East,82,0.0,-999.0,88,-99.99,,,0.00,weatherlink.com 1.10,2013-07-27 03:45:00,